sensor_id;sensor_type;location;lat;lon;timestamp;pressure;altitude;pressure_sealevel;temperature;humidity
63907;BME280;50075;49.484;11.238;2024-02-23T00:00:47;95692.34;;;12.18;100.00
63907;BME280;50075;49.484;11.238;2024-02-23T00:03:12;95698.84;;;12.09;100.00
63907;BME280;50075;49.484;11.238;2024-02-23T00:05:37;95706.97;;;12.02;100.00
63907;BME280;50075;49.484;11.238;2024-02-23T00:08:03;95712.47;;;12.71;100.00
63907;BME280;50075;49.484;11.238;2024-02-23T00:10:28;95708.19;;;12.14;100.00
63907;BME280;50075;49.484;11.238;2024-02-23T00:12:54;95717.78;;;12.87;100.00
63907;BME280;50075;49.484;11.238;2024-02-23T00:15:19;95729.69;;;11.98;100.00
63907;BME280;50075;49.484;11.238;2024-02-23T00:17:44;95737.03;;;12.84;100.00
63907;BME280;50075;49.484;11.238;2024-02-23T00:20:10;95724.63;;;12.53;100.00
63907;BME280;50075;49.484;11.238;2024-02-23T00:22:36;95728.25;;;12.11;100.00
63907;BME280;50075;49.484;11.238;2024-02-23T00:25:02;95726.91;;;12.41;100.00
63907;BME280;50075;49.484;11.238;2024-02-23T00:27:27;95730.75;;;12.52;100.00
63907;BME280;50075;49.484;11.238;2024-02-23T00:29:53;95734.28;;;11.93;100.00
63907;BME280;50075;49.484;11.238;2024-02-23T00:32:18;95731.53;;;11.96;100.00
63907;BME280;50075;49.484;11.238;2024-02-23T00:34:43;95719.72;;;13.19;100.00
63907;BME280;50075;49.484;11.238;2024-02-23T00:37:09;95742.28;;;12.28;100.00
63907;BME280;50075;49.484;11.238;2024-02-23T00:39:34;95740.38;;;12.32;100.00
63907;BME280;50075;49.484;11.238;2024-02-23T00:41:59;95757.72;;;13.93;100.00
63907;BME280;50075;49.484;11.238;2024-02-23T00:44:25;95775.34;;;12.84;100.00
63907;BME280;50075;49.484;11.238;2024-02-23T00:46:50;95778.06;;;13.35;100.00
63907;BME280;50075;49.484;11.238;2024-02-23T00:49:16;95791.66;;;12.31;100.00
63907;BME280;50075;49.484;11.238;2024-02-23T00:51:42;95782.97;;;12.31;100.00
63907;BME280;50075;49.484;11.238;2024-02-23T00:54:08;95803.06;;;12.67;100.00
63907;BME280;50075;49.484;11.238;2024-02-23T00:56:34;95807.28;;;12.70;100.00
63907;BME280;50075;49.484;11.238;2024-02-23T00:58:59;95811.00;;;13.73;100.00
63907;BME280;50075;49.484;11.238;2024-02-23T01:01:25;95818.75;;;12.85;100.00
63907;BME280;50075;49.484;11.238;2024-02-23T01:03:51;95809.22;;;12.47;100.00
63907;BME280;50075;49.484;11.238;2024-02-23T01:06:17;95812.09;;;13.69;100.00
63907;BME280;50075;49.484;11.238;2024-02-23T01:08:42;95807.28;;;13.95;100.00
63907;BME280;50075;49.484;11.238;2024-02-23T01:11:08;95802.28;;;12.65;100.00
63907;BME280;50075;49.484;11.238;2024-02-23T01:13:33;95809.28;;;13.01;100.00
63907;BME280;50075;49.484;11.238;2024-02-23T01:15:59;95808.47;;;13.36;100.00
63907;BME280;50075;49.484;11.238;2024-02-23T01:18:24;95821.41;;;12.06;100.00
63907;BME280;50075;49.484;11.238;2024-02-23T01:20:49;95828.56;;;12.60;100.00
63907;BME280;50075;49.484;11.238;2024-02-23T01:23:15;95839.56;;;12.48;100.00
63907;BME280;50075;49.484;11.238;2024-02-23T01:25:40;95829.13;;;12.48;100.00
63907;BME280;50075;49.484;11.238;2024-02-23T01:28:06;95827.72;;;12.60;100.00
63907;BME280;50075;49.484;11.238;2024-02-23T01:30:31;95837.78;;;13.41;100.00
63907;BME280;50075;49.484;11.238;2024-02-23T01:32:56;95842.00;;;13.26;100.00
63907;BME280;50075;49.484;11.238;2024-02-23T01:35:22;95837.94;;;12.84;100.00
63907;BME280;50075;49.484;11.238;2024-02-23T01:37:47;95858.84;;;12.24;100.00
63907;BME280;50075;49.484;11.238;2024-02-23T01:40:13;95856.69;;;12.34;100.00
63907;BME280;50075;49.484;11.238;2024-02-23T01:42:38;95869.94;;;12.87;100.00
63907;BME280;50075;49.484;11.238;2024-02-23T01:45:04;95872.16;;;12.37;100.00
63907;BME280;50075;49.484;11.238;2024-02-23T01:47:29;95869.06;;;13.06;100.00
63907;BME280;50075;49.484;11.238;2024-02-23T01:49:57;95875.28;;;12.46;100.00
63907;BME280;50075;49.484;11.238;2024-02-23T01:52:23;95868.16;;;12.30;100.00
63907;BME280;50075;49.484;11.238;2024-02-23T01:54:48;95878.72;;;13.04;100.00
63907;BME280;50075;49.484;11.238;2024-02-23T01:57:14;95882.19;;;12.07;100.00
63907;BME280;50075;49.484;11.238;2024-02-23T01:59:40;95876.63;;;12.15;100.00
63907;BME280;50075;49.484;11.238;2024-02-23T02:02:06;95887.53;;;11.40;100.00
63907;BME280;50075;49.484;11.238;2024-02-23T02:04:31;95895.59;;;10.39;100.00
63907;BME280;50075;49.484;11.238;2024-02-23T02:07:00;95896.09;;;10.51;100.00
63907;BME280;50075;49.484;11.238;2024-02-23T02:09:26;95894.44;;;11.62;100.00
63907;BME280;50075;49.484;11.238;2024-02-23T02:11:51;95911.25;;;11.10;100.00
63907;BME280;50075;49.484;11.238;2024-02-23T02:14:17;95909.31;;;10.68;100.00
63907;BME280;50075;49.484;11.238;2024-02-23T02:16:43;95892.56;;;11.86;100.00
63907;BME280;50075;49.484;11.238;2024-02-23T02:19:09;95895.16;;;11.22;100.00
63907;BME280;50075;49.484;11.238;2024-02-23T02:21:36;95907.69;;;10.66;100.00
63907;BME280;50075;49.484;11.238;2024-02-23T02:24:02;95922.94;;;10.75;100.00
63907;BME280;50075;49.484;11.238;2024-02-23T02:26:28;95937.03;;;10.19;100.00
63907;BME280;50075;49.484;11.238;2024-02-23T02:28:53;95954.47;;;10.15;100.00
63907;BME280;50075;49.484;11.238;2024-02-23T02:31:18;95956.81;;;10.23;100.00
63907;BME280;50075;49.484;11.238;2024-02-23T02:33:44;95955.03;;;10.25;100.00
63907;BME280;50075;49.484;11.238;2024-02-23T02:36:09;95942.13;;;9.96;100.00
63907;BME280;50075;49.484;11.238;2024-02-23T02:38:35;95951.91;;;10.39;100.00
63907;BME280;50075;49.484;11.238;2024-02-23T02:41:00;95953.69;;;10.13;100.00
63907;BME280;50075;49.484;11.238;2024-02-23T02:43:26;95956.97;;;10.44;100.00
63907;BME280;50075;49.484;11.238;2024-02-23T02:45:52;95956.38;;;10.85;100.00
63907;BME280;50075;49.484;11.238;2024-02-23T02:48:17;95966.66;;;9.60;100.00
63907;BME280;50075;49.484;11.238;2024-02-23T02:50:43;95969.50;;;10.81;100.00
63907;BME280;50075;49.484;11.238;2024-02-23T02:53:09;95982.31;;;10.37;100.00
63907;BME280;50075;49.484;11.238;2024-02-23T02:55:35;95981.81;;;10.52;100.00
63907;BME280;50075;49.484;11.238;2024-02-23T02:58:01;95985.28;;;10.00;100.00
63907;BME280;50075;49.484;11.238;2024-02-23T03:00:26;95991.91;;;9.82;100.00
63907;BME280;50075;49.484;11.238;2024-02-23T03:02:52;95985.88;;;10.09;100.00
63907;BME280;50075;49.484;11.238;2024-02-23T03:05:17;95991.91;;;9.82;100.00
63907;BME280;50075;49.484;11.238;2024-02-23T03:07:43;95990.47;;;10.26;100.00
63907;BME280;50075;49.484;11.238;2024-02-23T03:10:08;95986.41;;;9.92;100.00
63907;BME280;50075;49.484;11.238;2024-02-23T03:12:33;95983.91;;;9.61;100.00
63907;BME280;50075;49.484;11.238;2024-02-23T03:14:59;96003.28;;;9.22;100.00
63907;BME280;50075;49.484;11.238;2024-02-23T03:17:24;96006.56;;;9.56;100.00
63907;BME280;50075;49.484;11.238;2024-02-23T03:19:50;96006.34;;;9.05;100.00
63907;BME280;50075;49.484;11.238;2024-02-23T03:22:15;96017.59;;;9.06;100.00
63907;BME280;50075;49.484;11.238;2024-02-23T03:24:41;96018.38;;;9.38;100.00
63907;BME280;50075;49.484;11.238;2024-02-23T03:27:06;96026.09;;;9.68;100.00
63907;BME280;50075;49.484;11.238;2024-02-23T03:29:31;96031.47;;;9.05;100.00
63907;BME280;50075;49.484;11.238;2024-02-23T03:31:57;96026.78;;;8.86;100.00
63907;BME280;50075;49.484;11.238;2024-02-23T03:34:23;96020.16;;;8.76;100.00
63907;BME280;50075;49.484;11.238;2024-02-23T03:36:48;96024.69;;;9.29;100.00
63907;BME280;50075;49.484;11.238;2024-02-23T03:39:14;96030.47;;;9.68;100.00
63907;BME280;50075;49.484;11.238;2024-02-23T03:41:39;96044.91;;;8.86;100.00
63907;BME280;50075;49.484;11.238;2024-02-23T03:44:05;96036.22;;;8.89;100.00
63907;BME280;50075;49.484;11.238;2024-02-23T03:46:30;96042.84;;;9.29;100.00
63907;BME280;50075;49.484;11.238;2024-02-23T03:48:56;96025.00;;;8.88;100.00
63907;BME280;50075;49.484;11.238;2024-02-23T03:51:22;96035.91;;;8.99;100.00
63907;BME280;50075;49.484;11.238;2024-02-23T03:53:47;96035.28;;;8.25;100.00
63907;BME280;50075;49.484;11.238;2024-02-23T03:56:12;96044.28;;;8.44;100.00
63907;BME280;50075;49.484;11.238;2024-02-23T03:58:38;96058.00;;;8.48;100.00
63907;BME280;50075;49.484;11.238;2024-02-23T04:01:03;96056.63;;;8.99;100.00
63907;BME280;50075;49.484;11.238;2024-02-23T04:03:29;96062.03;;;8.60;100.00
63907;BME280;50075;49.484;11.238;2024-02-23T04:05:54;96049.56;;;8.40;100.00
63907;BME280;50075;49.484;11.238;2024-02-23T04:08:19;96035.97;;;8.31;100.00
63907;BME280;50075;49.484;11.238;2024-02-23T04:10:45;96046.00;;;8.44;100.00
63907;BME280;50075;49.484;11.238;2024-02-23T04:13:10;96048.53;;;8.12;100.00
63907;BME280;50075;49.484;11.238;2024-02-23T04:15:39;96052.25;;;8.35;100.00
63907;BME280;50075;49.484;11.238;2024-02-23T04:18:05;96053.59;;;8.17;100.00
63907;BME280;50075;49.484;11.238;2024-02-23T04:20:30;96056.78;;;8.27;100.00
63907;BME280;50075;49.484;11.238;2024-02-23T04:22:55;96064.25;;;8.39;100.00
63907;BME280;50075;49.484;11.238;2024-02-23T04:25:21;96063.81;;;8.21;100.00
63907;BME280;50075;49.484;11.238;2024-02-23T04:27:46;96069.59;;;8.33;100.00
63907;BME280;50075;49.484;11.238;2024-02-23T04:30:12;96062.59;;;8.02;100.00
63907;BME280;50075;49.484;11.238;2024-02-23T04:32:39;96060.75;;;8.07;100.00
63907;BME280;50075;49.484;11.238;2024-02-23T04:35:05;96073.63;;;8.10;100.00
63907;BME280;50075;49.484;11.238;2024-02-23T04:37:30;96081.50;;;8.40;100.00
63907;BME280;50075;49.484;11.238;2024-02-23T04:39:55;96079.72;;;8.07;100.00
63907;BME280;50075;49.484;11.238;2024-02-23T04:42:21;96075.25;;;8.14;100.00
63907;BME280;50075;49.484;11.238;2024-02-23T04:44:46;96075.28;;;8.13;100.00
63907;BME280;50075;49.484;11.238;2024-02-23T04:47:11;96078.50;;;8.23;100.00
63907;BME280;50075;49.484;11.238;2024-02-23T04:49:37;96079.25;;;8.26;100.00
63907;BME280;50075;49.484;11.238;2024-02-23T04:52:04;96087.72;;;8.33;100.00
63907;BME280;50075;49.484;11.238;2024-02-23T04:54:30;96087.03;;;8.94;100.00
63907;BME280;50075;49.484;11.238;2024-02-23T04:56:55;96097.25;;;8.31;100.00
63907;BME280;50075;49.484;11.238;2024-02-23T04:59:21;96103.41;;;8.63;100.00
63907;BME280;50075;49.484;11.238;2024-02-23T05:01:46;96093.50;;;8.79;100.00
63907;BME280;50075;49.484;11.238;2024-02-23T05:04:12;96104.78;;;8.77;100.00
63907;BME280;50075;49.484;11.238;2024-02-23T05:06:38;96109.91;;;8.08;100.00
63907;BME280;50075;49.484;11.238;2024-02-23T05:09:03;96107.06;;;8.19;100.00
63907;BME280;50075;49.484;11.238;2024-02-23T05:11:28;96103.00;;;8.79;100.00
63907;BME280;50075;49.484;11.238;2024-02-23T05:13:54;96092.31;;;8.21;100.00
63907;BME280;50075;49.484;11.238;2024-02-23T05:16:19;96087.19;;;8.90;100.00
63907;BME280;50075;49.484;11.238;2024-02-23T05:18:44;96081.09;;;8.57;100.00
63907;BME280;50075;49.484;11.238;2024-02-23T05:21:12;96089.13;;;8.46;100.00
63907;BME280;50075;49.484;11.238;2024-02-23T05:23:37;96090.53;;;8.60;100.00
63907;BME280;50075;49.484;11.238;2024-02-23T05:26:02;96078.00;;;8.76;100.00
63907;BME280;50075;49.484;11.238;2024-02-23T05:28:28;96075.63;;;9.02;100.00
63907;BME280;50075;49.484;11.238;2024-02-23T05:30:54;96082.25;;;8.79;100.00
63907;BME280;50075;49.484;11.238;2024-02-23T05:33:19;96083.91;;;9.13;100.00
63907;BME280;50075;49.484;11.238;2024-02-23T05:35:47;96077.38;;;8.99;100.00
63907;BME280;50075;49.484;11.238;2024-02-23T05:38:16;96060.63;;;8.81;100.00
63907;BME280;50075;49.484;11.238;2024-02-23T05:40:42;96063.00;;;9.19;100.00
63907;BME280;50075;49.484;11.238;2024-02-23T05:43:08;96086.13;;;8.64;100.00
63907;BME280;50075;49.484;11.238;2024-02-23T05:45:33;96078.13;;;8.02;100.00
63907;BME280;50075;49.484;11.238;2024-02-23T05:47:58;96078.75;;;8.12;100.00
63907;BME280;50075;49.484;11.238;2024-02-23T05:50:24;96084.25;;;7.99;100.00
63907;BME280;50075;49.484;11.238;2024-02-23T05:52:49;96078.91;;;8.05;100.00
63907;BME280;50075;49.484;11.238;2024-02-23T05:55:15;96070.13;;;8.11;100.00
63907;BME280;50075;49.484;11.238;2024-02-23T05:57:41;96074.00;;;7.93;100.00
63907;BME280;50075;49.484;11.238;2024-02-23T06:00:06;96095.72;;;7.86;100.00
63907;BME280;50075;49.484;11.238;2024-02-23T06:02:33;96104.84;;;7.64;100.00
63907;BME280;50075;49.484;11.238;2024-02-23T06:04:58;96117.34;;;7.85;100.00
63907;BME280;50075;49.484;11.238;2024-02-23T06:07:23;96120.84;;;8.20;100.00
63907;BME280;50075;49.484;11.238;2024-02-23T06:09:55;96126.13;;;8.52;100.00
63907;BME280;50075;49.484;11.238;2024-02-23T06:12:21;96132.38;;;8.06;100.00
63907;BME280;50075;49.484;11.238;2024-02-23T06:14:46;96129.38;;;7.46;100.00
63907;BME280;50075;49.484;11.238;2024-02-23T06:17:11;96135.91;;;8.02;100.00
63907;BME280;50075;49.484;11.238;2024-02-23T06:19:37;96134.84;;;7.73;100.00
63907;BME280;50075;49.484;11.238;2024-02-23T06:22:02;96143.72;;;7.61;100.00
63907;BME280;50075;49.484;11.238;2024-02-23T06:24:27;96152.06;;;7.33;100.00
63907;BME280;50075;49.484;11.238;2024-02-23T06:26:53;96160.75;;;7.29;100.00
63907;BME280;50075;49.484;11.238;2024-02-23T06:29:18;96174.16;;;7.04;100.00
63907;BME280;50075;49.484;11.238;2024-02-23T06:31:43;96190.44;;;7.08;100.00
63907;BME280;50075;49.484;11.238;2024-02-23T06:34:14;96193.00;;;7.09;100.00
63907;BME280;50075;49.484;11.238;2024-02-23T06:36:39;96198.66;;;6.83;100.00
63907;BME280;50075;49.484;11.238;2024-02-23T06:39:05;96205.09;;;6.58;100.00
63907;BME280;50075;49.484;11.238;2024-02-23T06:41:30;96198.13;;;6.63;100.00
63907;BME280;50075;49.484;11.238;2024-02-23T06:43:56;96180.75;;;6.72;100.00
63907;BME280;50075;49.484;11.238;2024-02-23T06:46:21;96166.22;;;6.64;100.00
63907;BME280;50075;49.484;11.238;2024-02-23T06:48:47;96182.97;;;6.42;100.00
63907;BME280;50075;49.484;11.238;2024-02-23T06:51:13;96180.38;;;6.42;100.00
63907;BME280;50075;49.484;11.238;2024-02-23T06:53:39;96189.78;;;6.47;100.00
63907;BME280;50075;49.484;11.238;2024-02-23T06:56:04;96197.56;;;6.43;100.00
63907;BME280;50075;49.484;11.238;2024-02-23T06:58:30;96197.56;;;6.44;100.00
63907;BME280;50075;49.484;11.238;2024-02-23T07:00:55;96204.09;;;6.66;100.00
63907;BME280;50075;49.484;11.238;2024-02-23T07:03:20;96208.50;;;6.59;100.00
63907;BME280;50075;49.484;11.238;2024-02-23T07:05:46;96207.56;;;6.64;100.00
63907;BME280;50075;49.484;11.238;2024-02-23T07:08:12;96208.69;;;7.00;100.00
63907;BME280;50075;49.484;11.238;2024-02-23T07:10:37;96213.75;;;7.06;100.00
63907;BME280;50075;49.484;11.238;2024-02-23T07:13:03;96216.56;;;7.41;100.00
63907;BME280;50075;49.484;11.238;2024-02-23T07:15:28;96201.66;;;7.08;100.00
63907;BME280;50075;49.484;11.238;2024-02-23T07:17:54;96200.47;;;7.26;100.00
63907;BME280;50075;49.484;11.238;2024-02-23T07:20:20;96196.78;;;7.38;100.00
63907;BME280;50075;49.484;11.238;2024-02-23T07:22:46;96198.38;;;7.46;100.00
63907;BME280;50075;49.484;11.238;2024-02-23T07:25:16;96192.72;;;7.71;100.00
63907;BME280;50075;49.484;11.238;2024-02-23T07:27:41;96187.13;;;7.47;100.00
63907;BME280;50075;49.484;11.238;2024-02-23T07:30:07;96186.19;;;7.93;100.00
63907;BME280;50075;49.484;11.238;2024-02-23T07:32:32;96184.97;;;8.10;100.00
63907;BME280;50075;49.484;11.238;2024-02-23T07:34:58;96184.81;;;8.16;100.00
63907;BME280;50075;49.484;11.238;2024-02-23T07:37:26;96183.81;;;7.82;100.00
63907;BME280;50075;49.484;11.238;2024-02-23T07:39:51;96189.91;;;7.80;100.00
63907;BME280;50075;49.484;11.238;2024-02-23T07:42:16;96194.31;;;7.75;100.00
63907;BME280;50075;49.484;11.238;2024-02-23T07:44:44;96192.66;;;7.72;100.00
63907;BME280;50075;49.484;11.238;2024-02-23T07:47:09;96195.34;;;7.67;100.00
63907;BME280;50075;49.484;11.238;2024-02-23T07:49:35;96197.41;;;7.51;100.00
63907;BME280;50075;49.484;11.238;2024-02-23T07:52:00;96206.81;;;7.55;100.00
63907;BME280;50075;49.484;11.238;2024-02-23T07:54:25;96205.44;;;7.36;100.00
63907;BME280;50075;49.484;11.238;2024-02-23T07:56:51;96217.81;;;7.64;100.00
63907;BME280;50075;49.484;11.238;2024-02-23T07:59:16;96230.16;;;7.51;100.00
63907;BME280;50075;49.484;11.238;2024-02-23T08:01:41;96229.72;;;7.28;100.00
63907;BME280;50075;49.484;11.238;2024-02-23T08:04:07;96231.91;;;7.49;100.00
63907;BME280;50075;49.484;11.238;2024-02-23T08:06:32;96219.78;;;7.54;100.00
63907;BME280;50075;49.484;11.238;2024-02-23T08:08:58;96206.00;;;7.52;100.00
63907;BME280;50075;49.484;11.238;2024-02-23T08:11:23;96187.88;;;7.94;100.00
63907;BME280;50075;49.484;11.238;2024-02-23T08:13:48;96170.72;;;7.90;100.00
63907;BME280;50075;49.484;11.238;2024-02-23T08:16:16;96179.78;;;8.10;100.00
63907;BME280;50075;49.484;11.238;2024-02-23T08:18:42;96192.34;;;7.86;100.00
63907;BME280;50075;49.484;11.238;2024-02-23T08:21:07;96196.50;;;7.95;100.00
63907;BME280;50075;49.484;11.238;2024-02-23T08:23:33;96197.81;;;8.13;100.00
63907;BME280;50075;49.484;11.238;2024-02-23T08:25:58;96208.09;;;8.56;100.00
63907;BME280;50075;49.484;11.238;2024-02-23T08:28:25;96207.91;;;8.26;100.00
63907;BME280;50075;49.484;11.238;2024-02-23T08:30:51;96220.25;;;8.14;100.00
63907;BME280;50075;49.484;11.238;2024-02-23T08:33:16;96224.53;;;8.15;100.00
63907;BME280;50075;49.484;11.238;2024-02-23T08:35:41;96223.84;;;8.46;100.00
63907;BME280;50075;49.484;11.238;2024-02-23T08:38:07;96217.72;;;8.49;100.00
63907;BME280;50075;49.484;11.238;2024-02-23T08:40:34;96214.41;;;8.44;100.00
63907;BME280;50075;49.484;11.238;2024-02-23T08:42:59;96219.47;;;8.49;100.00
63907;BME280;50075;49.484;11.238;2024-02-23T08:45:25;96227.84;;;8.62;100.00
63907;BME280;50075;49.484;11.238;2024-02-23T08:47:50;96230.09;;;9.75;100.00
63907;BME280;50075;49.484;11.238;2024-02-23T08:50:15;96227.63;;;10.01;100.00
63907;BME280;50075;49.484;11.238;2024-02-23T08:52:41;96237.38;;;9.31;100.00
63907;BME280;50075;49.484;11.238;2024-02-23T08:55:06;96239.91;;;9.32;100.00
63907;BME280;50075;49.484;11.238;2024-02-23T08:57:32;96243.59;;;8.89;100.00
63907;BME280;50075;49.484;11.238;2024-02-23T08:59:57;96238.13;;;9.34;100.00
63907;BME280;50075;49.484;11.238;2024-02-23T09:02:26;96243.97;;;9.08;100.00
63907;BME280;50075;49.484;11.238;2024-02-23T09:04:51;96242.22;;;9.10;100.00
63907;BME280;50075;49.484;11.238;2024-02-23T09:07:17;96244.91;;;9.40;100.00
63907;BME280;50075;49.484;11.238;2024-02-23T09:09:45;96242.69;;;9.24;100.00
63907;BME280;50075;49.484;11.238;2024-02-23T09:12:11;96245.69;;;9.09;100.00
63907;BME280;50075;49.484;11.238;2024-02-23T09:14:36;96244.28;;;9.30;100.00
63907;BME280;50075;49.484;11.238;2024-02-23T09:17:04;96241.56;;;9.35;100.00
63907;BME280;50075;49.484;11.238;2024-02-23T09:19:30;96228.94;;;9.22;100.00
63907;BME280;50075;49.484;11.238;2024-02-23T09:21:55;96237.03;;;9.10;100.00
63907;BME280;50075;49.484;11.238;2024-02-23T09:24:20;96256.59;;;8.87;100.00
63907;BME280;50075;49.484;11.238;2024-02-23T09:26:46;96270.59;;;8.80;100.00
63907;BME280;50075;49.484;11.238;2024-02-23T09:29:12;96276.63;;;8.80;100.00
63907;BME280;50075;49.484;11.238;2024-02-23T09:31:38;96269.56;;;9.22;100.00
63907;BME280;50075;49.484;11.238;2024-02-23T09:34:03;96259.28;;;8.84;100.00
63907;BME280;50075;49.484;11.238;2024-02-23T09:36:28;96261.25;;;9.09;100.00
63907;BME280;50075;49.484;11.238;2024-02-23T09:38:55;96253.25;;;8.82;100.00
63907;BME280;50075;49.484;11.238;2024-02-23T09:41:21;96248.53;;;8.63;100.00
63907;BME280;50075;49.484;11.238;2024-02-23T09:43:48;96249.56;;;8.56;100.00
63907;BME280;50075;49.484;11.238;2024-02-23T09:46:15;96263.19;;;8.25;100.00
63907;BME280;50075;49.484;11.238;2024-02-23T09:48:43;96266.69;;;8.62;100.00
63907;BME280;50075;49.484;11.238;2024-02-23T09:51:09;96268.72;;;8.87;100.00
63907;BME280;50075;49.484;11.238;2024-02-23T09:53:37;96275.38;;;8.97;100.00
63907;BME280;50075;49.484;11.238;2024-02-23T09:56:03;96281.84;;;9.15;100.00
63907;BME280;50075;49.484;11.238;2024-02-23T09:58:30;96290.09;;;8.96;100.00
63907;BME280;50075;49.484;11.238;2024-02-23T10:01:01;96294.47;;;8.14;100.00
63907;BME280;50075;49.484;11.238;2024-02-23T10:03:27;96306.50;;;7.25;100.00
63907;BME280;50075;49.484;11.238;2024-02-23T10:05:57;96311.19;;;7.01;100.00
63907;BME280;50075;49.484;11.238;2024-02-23T10:08:22;96301.69;;;7.03;100.00
63907;BME280;50075;49.484;11.238;2024-02-23T10:10:48;96302.81;;;6.86;100.00
63907;BME280;50075;49.484;11.238;2024-02-23T10:13:19;96296.72;;;6.90;100.00
63907;BME280;50075;49.484;11.238;2024-02-23T10:15:49;96284.50;;;7.00;100.00
63907;BME280;50075;49.484;11.238;2024-02-23T10:18:15;96294.16;;;6.89;100.00
63907;BME280;50075;49.484;11.238;2024-02-23T10:20:40;96296.50;;;7.05;100.00
63907;BME280;50075;49.484;11.238;2024-02-23T10:23:07;96300.81;;;7.04;100.00
63907;BME280;50075;49.484;11.238;2024-02-23T10:25:36;96297.22;;;7.13;100.00
63907;BME280;50075;49.484;11.238;2024-02-23T10:28:02;96293.06;;;7.02;100.00
63907;BME280;50075;49.484;11.238;2024-02-23T10:30:28;96293.63;;;7.22;100.00
63907;BME280;50075;49.484;11.238;2024-02-23T10:32:55;96297.56;;;7.89;100.00
63907;BME280;50075;49.484;11.238;2024-02-23T10:35:22;96291.91;;;8.14;100.00
63907;BME280;50075;49.484;11.238;2024-02-23T10:37:48;96286.41;;;8.29;100.00
63907;BME280;50075;49.484;11.238;2024-02-23T10:40:19;96301.50;;;8.50;100.00
63907;BME280;50075;49.484;11.238;2024-02-23T10:42:46;96301.75;;;8.78;100.00
63907;BME280;50075;49.484;11.238;2024-02-23T10:45:20;96296.44;;;8.83;100.00
63907;BME280;50075;49.484;11.238;2024-02-23T10:47:48;96289.56;;;8.82;100.00
63907;BME280;50075;49.484;11.238;2024-02-23T10:50:14;96290.84;;;9.02;100.00
63907;BME280;50075;49.484;11.238;2024-02-23T10:52:42;96288.59;;;8.86;100.00
63907;BME280;50075;49.484;11.238;2024-02-23T10:55:09;96296.16;;;8.57;100.00
63907;BME280;50075;49.484;11.238;2024-02-23T10:57:35;96300.03;;;9.14;100.00
63907;BME280;50075;49.484;11.238;2024-02-23T11:00:00;96289.06;;;9.02;100.00
63907;BME280;50075;49.484;11.238;2024-02-23T11:02:28;96279.25;;;8.79;100.00
63907;BME280;50075;49.484;11.238;2024-02-23T11:04:56;96283.38;;;8.88;100.00
63907;BME280;50075;49.484;11.238;2024-02-23T11:07:23;96280.16;;;8.78;100.00
63907;BME280;50075;49.484;11.238;2024-02-23T11:10:13;96284.81;;;8.63;100.00
63907;BME280;50075;49.484;11.238;2024-02-23T11:12:38;96289.38;;;8.50;100.00
63907;BME280;50075;49.484;11.238;2024-02-23T11:15:04;96287.91;;;8.38;100.00
63907;BME280;50075;49.484;11.238;2024-02-23T11:17:30;96276.28;;;8.59;100.00
63907;BME280;50075;49.484;11.238;2024-02-23T11:19:56;96277.13;;;8.58;100.00
63907;BME280;50075;49.484;11.238;2024-02-23T11:22:30;96274.00;;;8.82;100.00
63907;BME280;50075;49.484;11.238;2024-02-23T11:25:16;96270.25;;;8.94;100.00
63907;BME280;50075;49.484;11.238;2024-02-23T11:27:42;96271.19;;;8.91;100.00
63907;BME280;50075;49.484;11.238;2024-02-23T11:30:09;96268.06;;;9.13;100.00
63907;BME280;50075;49.484;11.238;2024-02-23T11:32:40;96275.25;;;9.36;100.00
63907;BME280;50075;49.484;11.238;2024-02-23T11:35:07;96271.09;;;9.31;100.00
63907;BME280;50075;49.484;11.238;2024-02-23T11:37:33;96278.72;;;9.37;100.00
63907;BME280;50075;49.484;11.238;2024-02-23T11:40:09;96267.50;;;9.35;100.00
63907;BME280;50075;49.484;11.238;2024-02-23T11:42:35;96258.81;;;9.69;100.00
63907;BME280;50075;49.484;11.238;2024-02-23T11:45:01;96267.34;;;9.74;100.00
63907;BME280;50075;49.484;11.238;2024-02-23T11:47:26;96275.22;;;9.71;100.00
63907;BME280;50075;49.484;11.238;2024-02-23T11:49:51;96271.97;;;9.63;100.00
63907;BME280;50075;49.484;11.238;2024-02-23T11:52:17;96274.69;;;9.90;100.00
63907;BME280;50075;49.484;11.238;2024-02-23T11:54:42;96279.34;;;9.79;100.00
63907;BME280;50075;49.484;11.238;2024-02-23T11:57:07;96272.09;;;9.58;100.00
63907;BME280;50075;49.484;11.238;2024-02-23T11:59:33;96263.53;;;9.55;100.00
63907;BME280;50075;49.484;11.238;2024-02-23T12:01:58;96261.06;;;9.82;100.00
63907;BME280;50075;49.484;11.238;2024-02-23T12:04:26;96252.22;;;9.89;100.00
63907;BME280;50075;49.484;11.238;2024-02-23T12:06:52;96251.53;;;9.82;100.00
63907;BME280;50075;49.484;11.238;2024-02-23T12:09:18;96247.38;;;10.07;100.00
63907;BME280;50075;49.484;11.238;2024-02-23T12:11:43;96246.97;;;10.21;100.00
63907;BME280;50075;49.484;11.238;2024-02-23T12:14:09;96242.41;;;9.35;100.00
63907;BME280;50075;49.484;11.238;2024-02-23T12:16:35;96241.75;;;9.92;100.00
63907;BME280;50075;49.484;11.238;2024-02-23T12:19:03;96244.16;;;9.35;100.00
63907;BME280;50075;49.484;11.238;2024-02-23T12:21:29;96240.06;;;9.59;100.00
63907;BME280;50075;49.484;11.238;2024-02-23T12:23:54;96233.50;;;10.08;100.00
63907;BME280;50075;49.484;11.238;2024-02-23T12:26:19;96238.53;;;9.84;100.00
63907;BME280;50075;49.484;11.238;2024-02-23T12:28:46;96232.50;;;10.12;100.00
63907;BME280;50075;49.484;11.238;2024-02-23T12:31:11;96231.09;;;9.38;100.00
63907;BME280;50075;49.484;11.238;2024-02-23T12:33:38;96236.22;;;9.73;100.00
63907;BME280;50075;49.484;11.238;2024-02-23T12:36:05;96232.22;;;9.29;100.00
63907;BME280;50075;49.484;11.238;2024-02-23T12:38:31;96230.50;;;9.60;100.00
63907;BME280;50075;49.484;11.238;2024-02-23T12:40:57;96231.16;;;9.98;100.00